Time;durP1;ratioP1;P1;durP2;ratioP2;P2;SDS_P1;SDS_P2;PMS_P1;PMS_P2;Temp;Humidity;BMP_temperature;BMP_pressure;BME280_temperature;BME280_humidity;BME280_pressure;Samples;Min_cycle;Max_cycle;Signal;HPM_P1;HPM_P2
2021/08/12 00:02:09;;;;;;;3.90;3.23;;;22.30;99.90;;;;;;5139119;27;20496;-80
2021/08/12 00:04:37;;;;;;;4.87;3.73;;;22.30;99.90;;;;;;5137676;27;20440;-81
2021/08/12 00:07:06;;;;;;;4.93;4.20;;;22.30;99.90;;;;;;5139464;27;20488;-81
2021/08/12 00:09:36;;;;;;;5.57;3.60;;;22.30;99.90;;;;;;5136462;27;20466;-81
2021/08/12 00:12:05;;;;;;;7.10;4.50;;;22.20;99.90;;;;;;5137240;27;20538;-81
2021/08/12 00:14:33;;;;;;;6.30;4.20;;;22.20;99.90;;;;;;5136213;27;20443;-80
2021/08/12 00:17:01;;;;;;;4.27;3.87;;;22.20;99.90;;;;;;5137187;27;20526;-80
2021/08/12 00:19:29;;;;;;;7.10;5.07;;;22.20;99.90;;;;;;5130324;28;20442;-81
2021/08/12 00:21:57;;;;;;;5.63;4.30;;;22.10;99.90;;;;;;5133790;28;20519;-81
2021/08/12 00:24:25;;;;;;;5.00;4.50;;;22.10;99.90;;;;;;5132762;28;20444;-81
2021/08/12 00:26:55;;;;;;;5.37;4.30;;;22.10;99.90;;;;;;5131095;28;20811;-81
2021/08/12 00:29:23;;;;;;;6.13;3.20;;;22.00;99.90;;;;;;5131444;28;20477;-81
2021/08/12 00:31:51;;;;;;;4.53;3.80;;;22.00;99.90;;;;;;5133315;28;20471;-81
2021/08/12 00:34:19;;;;;;;10.50;4.40;;;22.00;99.90;;;;;;5132973;28;20446;-82
2021/08/12 00:36:47;;;;;;;4.13;3.70;;;22.00;1.00;;;;;;5132120;28;20448;-81
2021/08/12 00:39:15;;;;;;;4.10;3.23;;;22.00;1.00;;;;;;5131764;27;20439;-80
2021/08/12 00:41:44;;;;;;;4.93;4.03;;;22.00;1.00;;;;;;5132965;28;20470;-81
2021/08/12 00:44:14;;;;;;;4.73;3.90;;;22.00;1.00;;;;;;5132322;28;20450;-80
2021/08/12 00:46:42;;;;;;;3.73;3.20;;;21.90;99.90;;;;;;5118980;28;20509;-82
2021/08/12 00:49:10;;;;;;;4.60;4.20;;;22.00;1.00;;;;;;5112830;28;20506;-81
2021/08/12 00:51:40;;;;;;;3.80;3.30;;;21.90;1.00;;;;;;5108497;28;20457;-77
2021/08/12 00:54:08;;;;;;;4.70;4.17;;;21.90;1.00;;;;;;5108642;28;20434;-78
2021/08/12 00:56:37;;;;;;;4.33;3.93;;;21.90;1.00;;;;;;5109441;28;20484;-79
2021/08/12 00:59:05;;;;;;;5.13;4.40;;;21.80;99.90;;;;;;5108461;28;20993;-79
2021/08/12 01:01:34;;;;;;;6.40;3.97;;;21.80;1.00;;;;;;5109523;28;20576;-79
2021/08/12 01:04:03;;;;;;;4.33;3.83;;;21.80;1.00;;;;;;5108080;28;20549;-78
2021/08/12 01:06:40;;;;;;;5.60;3.60;;;21.80;1.00;;;;;;5126475;28;20567;-78
2021/08/12 01:09:18;;;;;;;4.93;4.43;;;21.80;1.00;;;;;;5129006;28;20514;-78
2021/08/12 01:11:56;;;;;;;6.30;4.40;;;21.80;1.00;;;;;;5128074;28;20511;-78
2021/08/12 01:14:28;;;;;;;5.57;4.13;;;21.80;1.00;;;;;;5128352;28;20452;-79
2021/08/12 01:17:02;;;;;;;4.80;3.57;;;21.70;1.00;;;;;;5129646;28;20486;-78
2021/08/12 01:20:03;;;;;;;5.10;3.80;;;21.70;1.00;;;;;;5127958;27;21150;-79
2021/08/12 01:22:33;;;;;;;8.13;4.50;;;21.70;1.00;;;;;;5126398;27;20483;-78
2021/08/12 01:25:06;;;;;;;5.17;3.83;;;21.70;1.00;;;;;;5130056;27;20433;-79
2021/08/12 01:27:38;;;;;;;4.87;3.60;;;21.70;1.00;;;;;;5131707;27;20440;-79
2021/08/12 01:30:09;;;;;;;6.57;3.83;;;21.60;1.00;;;;;;5132774;27;20482;-78
2021/08/12 01:32:52;;;;;;;4.53;3.37;;;21.60;1.00;;;;;;5132477;27;20485;-78
2021/08/12 01:35:24;;;;;;;4.50;4.10;;;21.60;1.00;;;;;;5131849;27;20973;-78
2021/08/12 01:37:58;;;;;;;4.73;3.43;;;21.60;1.00;;;;;;5132625;27;20432;-79
2021/08/12 01:40:28;;;;;;;3.97;3.60;;;21.50;1.00;;;;;;5116624;27;20497;-79
2021/08/12 01:42:57;;;;;;;4.30;3.67;;;21.50;1.00;;;;;;5112320;28;20521;-78
2021/08/12 01:45:27;;;;;;;3.53;3.20;;;21.50;1.00;;;;;;5112438;28;21256;-78
2021/08/12 01:47:57;;;;;;;5.00;3.40;;;21.50;1.00;;;;;;5111910;28;20429;-78
2021/08/12 01:50:28;;;;;;;6.60;4.10;;;21.50;1.00;;;;;;5111961;28;20527;-78
2021/08/12 01:52:58;;;;;;;4.00;3.67;;;21.50;1.00;;;;;;5111699;28;20517;-78
2021/08/12 01:55:31;;;;;;;4.70;3.10;;;21.50;1.00;;;;;;5111291;28;20460;-78
2021/08/12 01:58:01;;;;;;;4.83;3.50;;;21.50;1.00;;;;;;5112460;28;20456;-79
2021/08/12 02:00:31;;;;;;;7.70;3.70;;;21.50;1.00;;;;;;5110197;28;20490;-78
2021/08/12 02:03:00;;;;;;;4.93;4.10;;;21.40;1.00;;;;;;5111898;28;20453;-79
2021/08/12 02:05:31;;;;;;;3.77;3.47;;;21.40;1.00;;;;;;5111735;28;20484;-79
2021/08/12 02:07:59;;;;;;;3.57;3.23;;;21.40;1.00;;;;;;5110736;28;20452;-78
2021/08/12 02:10:27;;;;;;;4.60;4.20;;;21.40;1.00;;;;;;5111142;28;20476;-78
2021/08/12 02:12:56;;;;;;;3.50;3.20;;;21.40;1.00;;;;;;5111612;27;20481;-78
2021/08/12 02:15:24;;;;;;;4.93;4.20;;;21.40;1.00;;;;;;5111294;28;20476;-78
2021/08/12 02:17:52;;;;;;;3.80;3.20;;;21.30;1.00;;;;;;5111855;28;20452;-79
2021/08/12 02:20:20;;;;;;;9.50;4.23;;;21.40;1.00;;;;;;5110971;28;20525;-78
2021/08/12 02:22:55;;;;;;;5.93;4.33;;;21.30;1.00;;;;;;5111857;28;20456;-79
2021/08/12 02:25:29;;;;;;;4.10;3.20;;;21.30;1.00;;;;;;5111195;28;20483;-79
2021/08/12 02:28:00;;;;;;;4.17;3.87;;;21.10;1.00;;;;;;5110696;28;20517;-79
2021/08/12 02:30:28;;;;;;;5.17;3.63;;;21.30;1.00;;;;;;5118402;27;20873;-79
2021/08/12 02:32:58;;;;;;;5.10;3.80;;;21.20;1.00;;;;;;5132262;27;20571;-79
2021/08/12 02:35:26;;;;;;;4.00;3.50;;;21.20;1.00;;;;;;5131380;27;20500;-78
2021/08/12 02:37:58;;;;;;;4.47;3.43;;;21.20;1.00;;;;;;5131957;27;20512;-78
2021/08/12 02:40:29;;;;;;;5.80;3.30;;;21.20;1.00;;;;;;5132102;27;20424;-78
2021/08/12 02:42:57;;;;;;;4.63;3.83;;;21.20;1.00;;;;;;5132517;27;20827;-78
2021/08/12 02:45:27;;;;;;;4.50;3.67;;;21.20;1.00;;;;;;5131198;27;21116;-78
2021/08/12 02:47:57;;;;;;;4.20;3.70;;;21.20;1.00;;;;;;5131336;27;20452;-78
2021/08/12 02:50:25;;;;;;;4.60;4.20;;;21.20;1.00;;;;;;5130368;27;20498;-78
2021/08/12 02:52:54;;;;;;;4.53;4.10;;;21.10;1.00;;;;;;5132390;27;20520;-79
2021/08/12 02:55:26;;;;;;;3.90;3.60;;;21.10;1.00;;;;;;5129518;27;20447;-79
2021/08/12 02:57:54;;;;;;;6.97;3.70;;;21.10;1.00;;;;;;5131860;27;20534;-78
2021/08/12 03:00:23;;;;;;;4.60;4.20;;;21.10;1.00;;;;;;5130779;27;20432;-79
2021/08/12 03:02:52;;;;;;;4.50;3.77;;;21.10;1.00;;;;;;5131905;27;20517;-78
2021/08/12 03:05:21;;;;;;;4.30;3.50;;;21.10;1.00;;;;;;5129551;27;20488;-78
2021/08/12 03:07:49;;;;;;;5.53;3.60;;;21.10;1.00;;;;;;5131599;27;20432;-79
2021/08/12 03:10:20;;;;;;;4.97;3.90;;;21.10;1.00;;;;;;5130184;27;20505;-77
2021/08/12 03:12:50;;;;;;;3.20;3.00;;;21.00;1.00;;;;;;5128846;27;20521;-79
2021/08/12 03:15:20;;;;;;;4.00;3.70;;;21.00;1.00;;;;;;5131419;27;20458;-78
2021/08/12 03:17:48;;;;;;;5.37;3.40;;;21.00;1.00;;;;;;5130798;27;20931;-80
2021/08/12 03:20:17;;;;;;;4.80;3.40;;;21.00;1.00;;;;;;5129805;27;20470;-80
2021/08/12 03:22:45;;;;;;;4.00;3.60;;;21.00;1.00;;;;;;5130949;27;20525;-80
2021/08/12 03:25:14;;;;;;;3.93;3.50;;;20.90;1.00;;;;;;5132280;27;20463;-80
2021/08/12 03:27:42;;;;;;;6.40;4.03;;;20.90;1.00;;;;;;5131616;27;20579;-80
2021/08/12 03:30:12;;;;;;;4.00;3.07;;;20.90;1.00;;;;;;5113974;27;20475;-81
2021/08/12 03:32:40;;;;;;;132.73;54.80;;;20.90;1.00;;;;;;5123085;27;20468;-80
2021/08/12 03:35:10;;;;;;;7.23;5.23;;;20.90;1.00;;;;;;5111126;28;20495;-79
2021/08/12 03:37:38;;;;;;;3.60;3.10;;;20.90;1.00;;;;;;5111238;28;20490;-79
2021/08/12 03:40:07;;;;;;;4.03;3.60;;;20.80;1.00;;;;;;5110635;28;20509;-80
2021/08/12 03:42:35;;;;;;;4.53;3.90;;;20.90;1.00;;;;;;5110546;28;20457;-80
2021/08/12 03:45:04;;;;;;;3.70;3.40;;;20.80;1.00;;;;;;5111734;28;20460;-80
2021/08/12 03:47:34;;;;;;;4.37;3.60;;;20.80;1.00;;;;;;5111185;28;20433;-80
2021/08/12 03:50:02;;;;;;;3.50;3.20;;;20.80;1.00;;;;;;5110682;28;20437;-80
2021/08/12 03:52:30;;;;;;;5.37;3.47;;;20.80;1.00;;;;;;5110008;28;20461;-80
2021/08/12 03:54:58;;;;;;;5.70;3.97;;;20.80;1.00;;;;;;5111342;28;20441;-80
2021/08/12 03:57:26;;;;;;;5.30;4.33;;;20.70;1.00;;;;;;5110128;28;20441;-80
2021/08/12 03:59:54;;;;;;;3.83;3.50;;;20.70;1.00;;;;;;5111207;28;20474;-79
2021/08/12 04:02:23;;;;;;;5.80;4.63;;;20.70;1.00;;;;;;5110007;28;20460;-79
2021/08/12 04:04:52;;;;;;;5.30;3.80;;;20.70;1.00;;;;;;5110765;28;20871;-80
2021/08/12 04:07:21;;;;;;;3.93;3.63;;;20.70;1.00;;;;;;5108191;28;20445;-80
2021/08/12 04:09:50;;;;;;;6.03;4.27;;;20.60;1.00;;;;;;5111014;28;20436;-80
2021/08/12 04:12:18;;;;;;;6.43;4.90;;;20.60;1.00;;;;;;5109240;28;20886;-80
2021/08/12 04:14:46;;;;;;;4.30;3.77;;;20.60;1.00;;;;;;5111161;28;20536;-80
2021/08/12 04:17:14;;;;;;;4.90;4.23;;;20.60;1.00;;;;;;5109385;28;20448;-80
2021/08/12 04:19:47;;;;;;;4.73;4.33;;;20.60;1.00;;;;;;5110685;28;20516;-80
2021/08/12 04:22:17;;;;;;;5.40;4.13;;;20.60;1.00;;;;;;5110216;28;20449;-79
2021/08/12 04:24:45;;;;;;;5.03;4.10;;;20.60;1.00;;;;;;5111191;28;20786;-80
2021/08/12 04:27:14;;;;;;;4.13;3.73;;;20.60;1.00;;;;;;5110064;28;20520;-80
2021/08/12 04:29:42;;;;;;;5.27;4.77;;;20.60;1.00;;;;;;5118938;28;20451;-79
2021/08/12 04:32:10;;;;;;;4.27;3.87;;;20.60;1.00;;;;;;5128593;27;20495;-80
2021/08/12 04:34:38;;;;;;;5.00;3.20;;;20.60;1.00;;;;;;5131094;27;20432;-79
2021/08/12 04:37:06;;;;;;;4.77;4.10;;;20.60;1.00;;;;;;5130096;28;20444;-80
2021/08/12 04:39:36;;;;;;;5.63;3.67;;;20.60;1.00;;;;;;5131230;28;20873;-80
2021/08/12 04:42:04;;;;;;;4.50;4.10;;;20.60;1.00;;;;;;5130173;28;20978;-80
2021/08/12 04:44:32;;;;;;;4.30;3.67;;;20.60;1.00;;;;;;5129744;28;21124;-79
2021/08/12 04:47:00;;;;;;;5.03;4.43;;;20.60;1.00;;;;;;5129479;28;20451;-79
2021/08/12 04:49:28;;;;;;;5.10;4.30;;;20.60;1.00;;;;;;5130815;28;20485;-80
2021/08/12 04:51:57;;;;;;;5.73;4.10;;;20.60;1.00;;;;;;5128525;28;20487;-80
2021/08/12 04:54:25;;;;;;;3.90;3.60;;;20.60;1.00;;;;;;5130844;28;20823;-80
2021/08/12 04:56:54;;;;;;;4.10;3.70;;;20.60;1.00;;;;;;5129937;28;20451;-80
2021/08/12 04:59:22;;;;;;;4.63;4.20;;;20.60;1.00;;;;;;5130865;27;20428;-80
2021/08/12 05:01:54;;;;;;;4.63;4.20;;;20.70;1.00;;;;;;5134212;27;20447;-80
2021/08/12 05:04:23;;;;;;;4.63;3.60;;;20.70;1.00;;;;;;5134237;27;20451;-80
2021/08/12 05:06:51;;;;;;;4.87;3.63;;;20.70;1.00;;;;;;5133585;27;20838;-80
2021/08/12 05:09:19;;;;;;;5.87;4.10;;;20.70;1.00;;;;;;5134442;27;21029;-80
2021/08/12 05:11:47;;;;;;;5.43;4.93;;;20.80;1.00;;;;;;5132789;27;20804;-80
2021/08/12 05:14:17;;;;;;;6.63;4.50;;;20.80;1.00;;;;;;5134337;27;20436;-79
2021/08/12 05:16:45;;;;;;;5.10;4.20;;;20.80;1.00;;;;;;5133697;27;20782;-80
2021/08/12 05:19:13;;;;;;;4.90;4.40;;;20.80;1.00;;;;;;5134180;27;20448;-80
2021/08/12 05:21:41;;;;;;;4.27;3.83;;;20.80;1.00;;;;;;5132541;27;20978;-79
2021/08/12 05:24:09;;;;;;;6.40;5.43;;;20.90;1.00;;;;;;5134548;27;20440;-80
2021/08/12 05:26:37;;;;;;;4.73;3.77;;;20.80;1.00;;;;;;5133943;27;20481;-80
2021/08/12 05:29:07;;;;;;;3.87;3.47;;;20.90;1.00;;;;;;5126379;27;20943;-80
2021/08/12 05:31:36;;;;;;;4.03;3.67;;;20.90;1.00;;;;;;5112364;28;20476;-80
2021/08/12 05:34:04;;;;;;;6.20;4.87;;;20.90;1.00;;;;;;5112352;28;20445;-80
2021/08/12 05:36:32;;;;;;;5.70;4.40;;;20.90;1.00;;;;;;5112020;27;20502;-80
2021/08/12 05:39:00;;;;;;;4.60;4.20;;;20.90;1.00;;;;;;5112905;28;20437;-80
2021/08/12 05:41:29;;;;;;;4.20;3.80;;;20.90;11.00;;;;;;5111806;28;20553;-79
2021/08/12 05:43:57;;;;;;;7.30;5.00;;;20.90;63.80;;;;;;5113720;28;20805;-80
2021/08/12 05:46:25;;;;;;;6.20;4.20;;;20.90;73.20;;;;;;5113512;28;20930;-79
2021/08/12 05:48:55;;;;;;;4.60;4.20;;;20.90;91.70;;;;;;5113241;28;20776;-78
2021/08/12 05:51:23;;;;;;;7.03;4.53;;;20.90;26.30;;;;;;5112110;28;20500;-80
2021/08/12 05:53:51;;;;;;;4.77;4.33;;;20.90;10.80;;;;;;5112767;28;20456;-80
2021/08/12 05:56:19;;;;;;;5.63;4.97;;;21.00;1.00;;;;;;5113415;28;20452;-79
2021/08/12 05:58:47;;;;;;;6.63;5.43;;;21.00;1.00;;;;;;5112693;28;20432;-79
2021/08/12 06:01:16;;;;;;;6.27;4.53;;;21.10;1.00;;;;;;5111583;28;20444;-79
2021/08/12 06:03:44;;;;;;;6.37;4.00;;;21.10;1.00;;;;;;5113054;28;20517;-79
2021/08/12 06:06:15;;;;;;;5.73;4.60;;;21.10;1.00;;;;;;5111913;28;20660;-80
2021/08/12 06:08:44;;;;;;;8.03;4.90;;;21.10;1.00;;;;;;5112185;28;20463;-80
2021/08/12 06:11:12;;;;;;;6.00;4.50;;;21.20;1.00;;;;;;5111151;27;20510;-80
2021/08/12 06:13:40;;;;;;;7.03;4.43;;;21.20;1.00;;;;;;5111881;28;20474;-79
2021/08/12 06:16:10;;;;;;;6.67;5.23;;;21.20;1.00;;;;;;5112877;28;20474;-79
2021/08/12 06:18:38;;;;;;;5.13;4.67;;;21.20;1.00;;;;;;5111408;28;20449;-80
2021/08/12 06:21:06;;;;;;;7.77;4.80;;;21.30;1.00;;;;;;5110652;28;20449;-80
2021/08/12 06:23:36;;;;;;;9.47;4.57;;;21.40;1.00;;;;;;5111250;28;20433;-79
2021/08/12 06:26:04;;;;;;;6.00;4.73;;;21.50;1.00;;;;;;5112806;28;20445;-79
2021/08/12 06:28:32;;;;;;;6.63;4.50;;;21.60;1.00;;;;;;5114257;27;20492;-80
2021/08/12 06:31:00;;;;;;;6.20;4.63;;;21.70;1.00;;;;;;5132890;27;20444;-80
2021/08/12 06:33:28;;;;;;;5.27;4.30;;;21.80;1.00;;;;;;5131753;27;21088;-79
2021/08/12 06:35:56;;;;;;;4.43;4.13;;;21.90;1.00;;;;;;5128814;27;20479;-80
2021/08/12 06:38:24;;;;;;;5.00;4.43;;;22.00;1.00;;;;;;5121008;27;20575;-80
2021/08/12 06:40:54;;;;;;;4.27;3.80;;;22.30;1.00;;;;;;5131292;27;20440;-80
2021/08/12 06:43:22;;;;;;;5.50;3.50;;;22.30;1.00;;;;;;5131123;27;20470;-79
2021/08/12 06:45:50;;;;;;;7.77;4.97;;;22.50;1.00;;;;;;5120910;27;20517;-79
2021/08/12 06:48:18;;;;;;;5.10;3.93;;;22.60;1.00;;;;;;5109389;28;20496;-79
2021/08/12 06:50:46;;;;;;;5.20;4.70;;;22.80;1.00;;;;;;5110095;28;20445;-80
2021/08/12 06:53:15;;;;;;;4.43;3.70;;;23.00;1.00;;;;;;5110795;28;20487;-79
2021/08/12 06:55:43;;;;;;;4.57;4.17;;;23.10;1.00;;;;;;5112212;28;20450;-80
2021/08/12 06:58:12;;;;;;;5.47;3.60;;;23.30;1.00;;;;;;5111171;27;20502;-79
2021/08/12 07:00:40;;;;;;;4.07;3.63;;;23.40;1.00;;;;;;5111248;28;21117;-79
2021/08/12 07:03:09;;;;;;;5.60;4.07;;;23.50;1.00;;;;;;5123285;27;20484;-81
2021/08/12 07:05:37;;;;;;;4.43;4.03;;;23.70;1.00;;;;;;5131336;27;20497;-81
2021/08/12 07:08:08;;;;;;;3.97;3.50;;;23.80;1.00;;;;;;5131973;27;20530;-80
2021/08/12 07:10:36;;;;;;;5.97;5.43;;;23.90;1.00;;;;;;5132450;27;20451;-80
2021/08/12 07:13:05;;;;;;;6.30;4.10;;;24.00;99.90;;;;;;5129109;27;20471;-80
2021/08/12 07:15:34;;;;;;;7.87;4.40;;;24.10;99.90;;;;;;5132467;27;20559;-80
2021/08/12 07:18:02;;;;;;;6.03;4.10;;;24.20;99.90;;;;;;5132134;27;20654;-80
2021/08/12 07:20:35;;;;;;;4.60;3.90;;;24.30;99.90;;;;;;5130983;27;20477;-80
2021/08/12 07:23:03;;;;;;;6.03;3.80;;;24.30;99.90;;;;;;5130904;27;20460;-80
2021/08/12 07:25:32;;;;;;;7.20;4.60;;;24.40;99.90;;;;;;5132096;27;20451;-80
2021/08/12 07:28:00;;;;;;;4.90;4.33;;;24.40;99.90;;;;;;5126897;27;20449;-80
2021/08/12 07:30:28;;;;;;;4.80;4.27;;;24.50;99.90;;;;;;5111042;28;20452;-81
2021/08/12 07:32:57;;;;;;;4.93;4.10;;;24.60;99.90;;;;;;5110769;28;21044;-79
2021/08/12 07:35:26;;;;;;;3.47;3.17;;;24.70;99.90;;;;;;5111078;28;20793;-80
2021/08/12 07:37:54;;;;;;;3.33;3.00;;;24.80;99.90;;;;;;5110738;28;20501;-80
2021/08/12 07:40:22;;;;;;;3.97;3.67;;;24.90;99.90;;;;;;5110415;28;20502;-79
2021/08/12 07:42:51;;;;;;;4.27;3.87;;;24.90;99.90;;;;;;5109306;28;20461;-80
2021/08/12 07:45:19;;;;;;;3.70;3.33;;;24.90;99.90;;;;;;5111291;28;20497;-79
2021/08/12 07:47:47;;;;;;;4.30;3.90;;;25.00;99.90;;;;;;5111311;28;20437;-80
2021/08/12 07:50:17;;;;;;;3.07;2.73;;;25.20;99.90;;;;;;5110471;28;20428;-79
2021/08/12 07:52:45;;;;;;;4.43;3.83;;;25.20;99.90;;;;;;5109513;28;21301;-80
2021/08/12 07:55:14;;;;;;;4.27;3.93;;;25.20;99.90;;;;;;5111351;28;20865;-80
2021/08/12 07:57:43;;;;;;;3.93;3.63;;;25.20;99.90;;;;;;5111173;28;20447;-79
2021/08/12 08:00:13;;;;;;;3.83;3.00;;;25.20;99.90;;;;;;5110298;28;20444;-79
2021/08/12 08:02:45;;;;;;;4.73;3.90;;;25.20;99.90;;;;;;5111125;28;20448;-80
2021/08/12 08:05:17;;;;;;;3.60;3.30;;;25.20;99.90;;;;;;5109050;28;20501;-78
2021/08/12 08:07:45;;;;;;;5.80;3.20;;;25.20;99.90;;;;;;5111742;28;20441;-80
2021/08/12 08:10:13;;;;;;;4.47;4.07;;;25.20;99.90;;;;;;5110328;28;20510;-80
2021/08/12 08:12:42;;;;;;;3.37;3.03;;;25.20;99.90;;;;;;5109177;28;20472;-79
2021/08/12 08:15:12;;;;;;;3.70;3.40;;;25.30;99.90;;;;;;5110610;28;20441;-80
2021/08/12 08:18:00;;;;;;;3.03;2.70;;;25.30;99.90;;;;;;5110418;28;20480;-79
2021/08/12 08:20:29;;;;;;;3.27;2.97;;;25.30;99.90;;;;;;5109721;28;20450;-79
2021/08/12 08:23:03;;;;;;;3.70;3.40;;;25.30;99.90;;;;;;5111575;28;20457;-80
2021/08/12 08:25:32;;;;;;;4.00;3.60;;;25.30;99.90;;;;;;5110300;28;20431;-80
2021/08/12 08:28:01;;;;;;;4.00;2.90;;;25.30;99.90;;;;;;5111787;28;20500;-78
2021/08/12 08:30:32;;;;;;;3.40;3.10;;;25.40;99.90;;;;;;5110277;28;20464;-80
2021/08/12 08:33:01;;;;;;;3.37;3.07;;;25.40;99.90;;;;;;5111954;28;20465;-80
2021/08/12 08:35:30;;;;;;;4.10;3.80;;;25.40;99.90;;;;;;5113109;28;20455;-79
2021/08/12 08:37:59;;;;;;;3.10;2.83;;;25.40;99.90;;;;;;5114473;28;20444;-80
2021/08/12 08:40:28;;;;;;;3.57;3.03;;;25.40;99.90;;;;;;5113979;28;20495;-79
2021/08/12 08:42:57;;;;;;;3.40;2.73;;;25.50;99.90;;;;;;5115145;28;20468;-79
2021/08/12 08:45:27;;;;;;;3.93;3.33;;;25.50;99.90;;;;;;5130203;27;20459;-79
2021/08/12 08:47:56;;;;;;;3.27;2.97;;;25.40;99.90;;;;;;5136085;27;20444;-80
2021/08/12 08:50:27;;;;;;;3.13;2.83;;;25.50;99.90;;;;;;5134538;27;20451;-80
2021/08/12 08:52:56;;;;;;;3.50;3.20;;;25.50;99.90;;;;;;5135238;27;20486;-80
2021/08/12 08:55:24;;;;;;;3.20;2.80;;;25.50;99.90;;;;;;5135114;27;20508;-80
2021/08/12 08:57:54;;;;;;;4.03;3.63;;;25.50;99.90;;;;;;5135714;27;20452;-80
2021/08/12 09:00:23;;;;;;;3.30;2.90;;;25.60;99.90;;;;;;5135156;27;20815;-80
2021/08/12 09:02:52;;;;;;;3.23;2.93;;;25.70;99.90;;;;;;5114253;27;20526;-80
2021/08/12 09:05:21;;;;;;;3.97;3.57;;;25.70;99.90;;;;;;5114555;27;20479;-80
2021/08/12 09:07:51;;;;;;;3.53;3.13;;;25.80;99.90;;;;;;5114651;28;20982;-80
2021/08/12 09:10:22;;;;;;;4.73;3.33;;;25.80;99.90;;;;;;5114136;28;20521;-80
2021/08/12 09:12:50;;;;;;;4.63;3.70;;;25.90;99.90;;;;;;5113067;28;20801;-80
2021/08/12 09:15:20;;;;;;;5.00;3.60;;;25.80;99.90;;;;;;5113892;28;20473;-79
2021/08/12 09:17:49;;;;;;;5.73;4.00;;;25.70;99.90;;;;;;5116548;27;20979;-80
2021/08/12 09:20:20;;;;;;;3.40;3.10;;;25.80;99.90;;;;;;5134726;27;20492;-80
2021/08/12 09:22:59;;;;;;;3.67;3.37;;;25.80;99.90;;;;;;5134552;27;20455;-80
2021/08/12 09:25:33;;;;;;;4.33;3.93;;;25.90;99.90;;;;;;5135469;27;20448;-80
2021/08/12 09:28:17;;;;;;;4.33;3.93;;;25.90;99.90;;;;;;5120313;27;20448;-79
2021/08/12 09:30:47;;;;;;;6.20;3.70;;;25.90;99.90;;;;;;5114262;28;20627;-80
2021/08/12 09:33:18;;;;;;;4.57;3.60;;;26.00;99.90;;;;;;5113303;28;20461;-79
2021/08/12 09:35:46;;;;;;;4.10;3.53;;;26.00;99.90;;;;;;5123912;27;20436;-80
2021/08/12 09:38:16;;;;;;;3.83;3.53;;;26.00;99.90;;;;;;5133099;27;20443;-78
2021/08/12 09:40:52;;;;;;;4.30;4.00;;;26.00;99.90;;;;;;5123495;27;20453;-80
2021/08/12 09:43:21;;;;;;;4.83;4.23;;;26.00;99.90;;;;;;5113028;28;20983;-80
2021/08/12 09:45:49;;;;;;;4.47;4.07;;;26.10;99.90;;;;;;5113771;28;20460;-80
2021/08/12 09:48:19;;;;;;;5.83;3.23;;;26.10;99.90;;;;;;5113042;28;20532;-80
2021/08/12 09:50:59;;;;;;;6.07;3.90;;;26.20;99.90;;;;;;5113397;28;20445;-80
2021/08/12 09:53:28;;;;;;;4.17;3.63;;;26.20;99.90;;;;;;5130137;27;20456;-80
2021/08/12 09:56:07;;;;;;;4.33;3.93;;;26.20;99.90;;;;;;5134329;27;20805;-80
2021/08/12 09:58:36;;;;;;;3.70;3.33;;;26.20;99.90;;;;;;5133565;27;20439;-76
2021/08/12 10:01:18;;;;;;;4.27;3.80;;;26.30;99.90;;;;;;5133747;27;20451;-79
2021/08/12 10:03:49;;;;;;;4.50;3.87;;;26.40;99.90;;;;;;5134330;27;20477;-80
2021/08/12 10:06:24;;;;;;;3.50;3.20;;;26.40;99.90;;;;;;5133956;27;20451;-79
2021/08/12 10:08:53;;;;;;;5.77;4.70;;;26.40;99.90;;;;;;5130145;27;20450;-79
2021/08/12 10:11:25;;;;;;;3.77;3.43;;;26.50;99.90;;;;;;5111321;28;20448;-80
2021/08/12 10:13:55;;;;;;;3.50;3.20;;;26.50;99.90;;;;;;5113112;28;20477;-80
2021/08/12 10:16:25;;;;;;;4.40;4.00;;;26.50;99.90;;;;;;5112473;28;20438;-79
2021/08/12 10:18:56;;;;;;;4.47;4.10;;;26.50;99.90;;;;;;5112620;28;20449;-79
2021/08/12 10:21:25;;;;;;;4.10;3.63;;;26.50;99.90;;;;;;5111993;28;20529;-79
2021/08/12 10:23:57;;;;;;;4.60;3.80;;;26.60;99.90;;;;;;5112172;28;20494;-79
2021/08/12 10:26:28;;;;;;;4.33;3.70;;;26.60;99.90;;;;;;5114001;28;20437;-79
2021/08/12 10:29:03;;;;;;;4.17;3.87;;;26.70;99.90;;;;;;5113766;28;20437;-80
2021/08/12 10:31:31;;;;;;;4.10;3.70;;;26.80;99.90;;;;;;5111755;28;20444;-80
2021/08/12 10:34:03;;;;;;;8.87;4.60;;;26.80;99.90;;;;;;5112577;28;20472;-80
2021/08/12 10:36:31;;;;;;;4.13;3.77;;;26.90;99.90;;;;;;5111055;28;20425;-79
2021/08/12 10:39:00;;;;;;;5.17;4.43;;;26.80;99.90;;;;;;5112137;28;20471;-79
2021/08/12 10:41:30;;;;;;;4.00;3.70;;;26.90;99.90;;;;;;5111055;28;20986;-80
2021/08/12 10:44:00;;;;;;;4.90;4.43;;;27.00;99.90;;;;;;5124863;27;20931;-80
2021/08/12 10:46:34;;;;;;;5.00;3.80;;;27.00;99.90;;;;;;5131724;27;20432;-79
2021/08/12 10:49:25;;;;;;;5.07;4.67;;;27.10;99.90;;;;;;5132944;27;20466;-79
2021/08/12 10:52:01;;;;;;;6.63;4.13;;;27.10;99.90;;;;;;5132213;27;20489;-80
2021/08/12 10:54:30;;;;;;;5.67;5.27;;;27.00;99.90;;;;;;5133503;27;20875;-80
2021/08/12 10:57:20;;;;;;;5.33;4.70;;;27.10;99.90;;;;;;5132297;27;20440;-80
2021/08/12 10:59:50;;;;;;;4.67;4.37;;;27.10;99.90;;;;;;5130254;27;20461;-80
2021/08/12 11:02:44;;;;;;;5.53;4.20;;;27.10;99.90;;;;;;5110571;28;20510;-80
2021/08/12 11:05:13;;;;;;;4.70;3.90;;;27.10;99.90;;;;;;5110997;28;20477;-80
2021/08/12 11:07:54;;;;;;;5.57;4.90;;;27.20;99.90;;;;;;5112076;28;20433;-80
2021/08/12 11:10:23;;;;;;;7.50;4.57;;;27.30;99.90;;;;;;5110862;28;20448;-80
2021/08/12 11:13:11;;;;;;;6.27;3.20;;;27.30;99.90;;;;;;5109650;28;20473;-80
2021/08/12 11:16:00;;;;;;;4.40;4.07;;;27.30;99.90;;;;;;5109802;28;20472;-81
2021/08/12 11:18:48;;;;;;;4.50;4.20;;;27.30;99.90;;;;;;5127630;27;20452;-79
2021/08/12 11:21:35;;;;;;;4.40;3.87;;;27.20;99.90;;;;;;5131602;27;20434;-78
2021/08/12 11:24:05;;;;;;;4.67;4.27;;;27.30;99.90;;;;;;5132625;27;20440;-80
2021/08/12 11:27:10;;;;;;;4.73;4.40;;;27.30;99.90;;;;;;5123206;27;20456;-80
2021/08/12 11:29:39;;;;;;;4.80;4.40;;;27.30;99.90;;;;;;5110383;28;20960;-79
2021/08/12 11:32:10;;;;;;;5.20;4.43;;;27.40;99.90;;;;;;5112144;28;20461;-80
2021/08/12 11:34:46;;;;;;;6.70;4.70;;;27.40;99.90;;;;;;5111677;27;21224;-80
2021/08/12 11:37:15;;;;;;;5.97;4.37;;;27.50;99.90;;;;;;5111135;28;20445;-80
2021/08/12 11:39:53;;;;;;;4.87;4.43;;;27.50;99.90;;;;;;5110019;28;20452;-80
2021/08/12 11:42:30;;;;;;;4.80;4.17;;;27.60;99.90;;;;;;5110053;28;20468;-80
2021/08/12 11:45:01;;;;;;;4.50;4.10;;;27.60;99.90;;;;;;5110911;28;20830;-79
2021/08/12 11:47:29;;;;;;;5.73;4.97;;;27.60;99.90;;;;;;5111657;28;20513;-80
2021/08/12 11:49:59;;;;;;;4.23;3.90;;;27.70;99.90;;;;;;5109841;28;20445;-80
2021/08/12 11:52:29;;;;;;;4.23;3.70;;;27.70;99.90;;;;;;5112038;27;20468;-80
2021/08/12 11:54:59;;;;;;;4.93;4.50;;;27.70;99.90;;;;;;5109737;28;20472;-80
2021/08/12 11:57:45;;;;;;;5.17;4.63;;;27.70;99.90;;;;;;5111667;28;20486;-79
2021/08/12 12:00:17;;;;;;;4.73;4.33;;;27.70;99.90;;;;;;5110377;28;20527;-80
2021/08/12 12:02:50;;;;;;;5.83;4.93;;;27.80;99.90;;;;;;5111562;28;20873;-81
2021/08/12 12:05:19;;;;;;;5.70;4.20;;;27.70;99.90;;;;;;5110389;28;20506;-80
2021/08/12 12:07:49;;;;;;;4.73;4.33;;;27.70;99.90;;;;;;5112325;28;20448;-79
2021/08/12 12:10:29;;;;;;;5.20;4.40;;;27.60;99.90;;;;;;5108753;28;20836;-79
2021/08/12 12:13:08;;;;;;;4.73;4.03;;;27.70;99.90;;;;;;5110111;28;20468;-81
2021/08/12 12:15:40;;;;;;;5.07;4.57;;;27.60;99.90;;;;;;5110874;28;20472;-81
2021/08/12 12:18:08;;;;;;;4.80;4.40;;;27.70;99.90;;;;;;5110850;28;20462;-80
2021/08/12 12:20:39;;;;;;;4.87;4.47;;;27.80;99.90;;;;;;5111238;28;20441;-80
2021/08/12 12:23:09;;;;;;;5.60;5.07;;;27.80;99.90;;;;;;5110368;28;20568;-79
2021/08/12 12:25:39;;;;;;;4.33;3.90;;;27.90;99.90;;;;;;5110884;28;20445;-80
2021/08/12 12:28:08;;;;;;;3.60;3.40;;;27.90;99.90;;;;;;5110132;28;20444;-80
2021/08/12 12:30:38;;;;;;;5.03;4.53;;;27.90;99.90;;;;;;5109966;28;20448;-80
2021/08/12 12:33:08;;;;;;;7.13;4.67;;;27.90;99.90;;;;;;5110118;28;20514;-80
2021/08/12 12:35:38;;;;;;;6.10;4.53;;;27.90;99.90;;;;;;5110466;28;20472;-80
2021/08/12 12:38:08;;;;;;;4.10;3.03;;;27.90;99.90;;;;;;5109467;28;20499;-79
2021/08/12 12:40:38;;;;;;;4.90;4.27;;;27.90;99.90;;;;;;5110632;28;20506;-80
2021/08/12 12:43:07;;;;;;;4.10;3.53;;;27.90;99.90;;;;;;5122551;28;20456;-80
2021/08/12 12:45:46;;;;;;;4.10;3.80;;;27.90;99.90;;;;;;5130783;28;20925;-80
2021/08/12 12:48:15;;;;;;;5.13;4.20;;;28.00;99.90;;;;;;5129455;28;20508;-79
2021/08/12 12:50:47;;;;;;;5.10;4.70;;;28.00;99.90;;;;;;5125952;28;20452;-80
2021/08/12 12:53:26;;;;;;;4.50;4.17;;;28.10;99.90;;;;;;5121687;28;20991;-77
2021/08/12 12:55:55;;;;;;;3.73;3.43;;;28.10;99.90;;;;;;5131081;28;20464;-80
2021/08/12 12:58:27;;;;;;;4.97;4.57;;;28.20;99.90;;;;;;5130183;28;20436;-80
2021/08/12 13:01:05;;;;;;;5.43;4.87;;;28.20;99.90;;;;;;5129995;28;20463;-80
2021/08/12 13:03:36;;;;;;;5.97;5.47;;;28.20;99.90;;;;;;5130948;28;20452;-79
2021/08/12 13:06:07;;;;;;;4.27;3.97;;;28.30;99.90;;;;;;5131271;27;20531;-80
2021/08/12 13:08:43;;;;;;;4.77;4.27;;;28.30;99.90;;;;;;5130603;27;20531;-80